Time,TemperatureF,DewpointF,PressureIn,WindDirection,WindDirectionDegrees,WindSpeedMPH,WindSpeedGustMPH,Humidity,HourlyPrecipIn,Conditions,Clouds,dailyrainin,SoftwareType,DateUTC
2013-11-07 00:01:00,54.1,53.5,30.07,WSW,246,4.0,-999.0,98,0.00,,,0.00,Wunderground v.1.15,2013-11-07 05:01:00,
2013-11-07 00:03:00,54.1,53.5,30.07,SW,234,6.0,-999.0,98,0.00,,,0.00,Wunderground v.1.15,2013-11-07 05:03:00,
2013-11-07 00:04:00,54.1,53.5,30.07,SW,234,7.0,-999.0,98,0.00,,,0.00,Wunderground v.1.15,2013-11-07 05:04:00,
2013-11-07 00:05:00,54.1,53.5,30.07,SW,235,5.0,-999.0,98,0.00,,,0.00,Wunderground v.1.15,2013-11-07 05:05:00,
2013-11-07 00:06:00,54.1,53.5,30.07,SW,219,8.0,-999.0,98,0.00,,,0.00,Wunderground v.1.15,2013-11-07 05:06:00,
2013-11-07 00:10:00,54.4,53.8,30.06,WSW,243,3.0,-999.0,98,0.00,,,0.00,Wunderground v.1.15,2013-11-07 05:10:00,
2013-11-07 00:11:00,54.4,53.8,30.06,SW,223,9.0,-999.0,98,0.00,,,0.00,Wunderground v.1.15,2013-11-07 05:11:00,
2013-11-07 00:16:00,54.5,53.9,30.06,SW,234,6.0,-999.0,98,0.00,,,0.00,Wunderground v.1.15,2013-11-07 05:16:00,
2013-11-07 00:22:00,54.7,54.1,30.05,SW,227,4.0,-999.0,98,0.00,,,0.00,Wunderground v.1.15,2013-11-07 05:22:00,
2013-11-07 00:28:00,54.8,54.2,30.05,SW,228,0.0,-999.0,98,0.00,,,0.00,Wunderground v.1.15,2013-11-07 05:28:00,
2013-11-07 00:34:00,55.0,54.4,30.05,South,175,7.0,-999.0,98,0.00,,,0.00,Wunderground v.1.15,2013-11-07 05:34:00,
2013-11-07 00:39:00,55.3,54.7,30.04,SW,227,5.0,-999.0,98,0.00,,,0.00,Wunderground v.1.15,2013-11-07 05:39:00,
2013-11-07 00:45:00,55.3,54.7,30.04,SW,227,0.0,-999.0,98,0.00,,,0.00,Wunderground v.1.15,2013-11-07 05:45:00,
2013-11-07 00:51:00,55.1,54.5,30.04,SW,227,0.0,-999.0,98,0.00,,,0.00,Wunderground v.1.15,2013-11-07 05:51:00,
2013-11-07 00:56:00,55.1,54.5,30.04,SW,227,0.0,-999.0,98,0.00,,,0.00,Wunderground v.1.15,2013-11-07 05:56:00,
2013-11-07 01:01:00,55.1,54.5,30.04,SW,227,0.0,-999.0,98,0.00,,,0.00,Wunderground v.1.15,2013-11-07 06:01:00,
2013-11-07 01:07:00,55.4,54.8,30.03,SW,232,0.0,-999.0,98,0.00,,,0.00,Wunderground v.1.15,2013-11-07 06:07:00,
2013-11-07 01:13:00,55.4,54.8,30.03,SW,232,2.0,-999.0,98,0.00,,,0.00,Wunderground v.1.15,2013-11-07 06:13:00,
2013-11-07 01:18:00,55.6,55.0,30.03,SW,232,0.0,-999.0,98,0.00,,,0.00,Wunderground v.1.15,2013-11-07 06:18:00,
2013-11-07 01:23:00,55.6,55.0,30.02,SW,232,4.0,-999.0,98,0.00,,,0.00,Wunderground v.1.15,2013-11-07 06:23:00,
2013-11-07 01:29:00,55.7,55.1,30.02,SW,227,0.0,-999.0,98,0.00,,,0.00,Wunderground v.1.15,2013-11-07 06:29:00,
2013-11-07 01:35:00,55.7,55.1,30.02,SW,229,0.0,-999.0,98,0.00,,,0.00,Wunderground v.1.15,2013-11-07 06:35:00,
2013-11-07 01:40:00,55.7,55.1,30.01,SW,229,0.0,-999.0,98,0.00,,,0.00,Wunderground v.1.15,2013-11-07 06:40:00,
2013-11-07 01:45:00,55.9,55.3,30.01,SW,225,0.0,-999.0,98,0.00,,,0.00,Wunderground v.1.15,2013-11-07 06:45:00,
2013-11-07 01:51:00,55.9,55.3,30.01,SW,225,0.0,-999.0,98,0.00,,,0.00,Wunderground v.1.15,2013-11-07 06:51:00,
2013-11-07 01:56:00,56.0,55.4,30.01,SW,225,6.0,-999.0,98,0.00,,,0.00,Wunderground v.1.15,2013-11-07 06:56:00,
2013-11-07 02:01:00,56.0,55.4,30.01,SW,225,4.0,-999.0,98,0.00,,,0.00,Wunderground v.1.15,2013-11-07 07:01:00,
2013-11-07 02:06:00,56.2,55.6,30.01,SW,226,4.0,-999.0,98,0.00,,,0.00,Wunderground v.1.15,2013-11-07 07:06:00,
2013-11-07 02:11:00,56.2,55.6,30.00,SW,225,7.0,-999.0,98,0.00,,,0.00,Wunderground v.1.15,2013-11-07 07:11:00,
2013-11-07 02:16:00,56.2,55.6,30.00,WSW,244,4.0,-999.0,98,0.00,,,0.00,Wunderground v.1.15,2013-11-07 07:16:00,
2013-11-07 02:21:00,56.5,55.9,30.00,SW,234,4.0,-999.0,98,0.00,,,0.00,Wunderground v.1.15,2013-11-07 07:21:00,
2013-11-07 02:26:00,56.6,56.0,29.99,SW,217,0.0,-999.0,98,0.00,,,0.00,Wunderground v.1.15,2013-11-07 07:26:00,
2013-11-07 02:31:00,56.6,56.0,29.99,WSW,245,6.0,-999.0,98,0.00,,,0.00,Wunderground v.1.15,2013-11-07 07:31:00,
2013-11-07 02:36:00,56.9,56.3,29.99,SW,222,0.0,-999.0,98,0.00,,,0.00,Wunderground v.1.15,2013-11-07 07:36:00,
2013-11-07 02:41:00,57.0,56.2,29.98,WSW,248,5.0,-999.0,97,0.00,,,0.00,Wunderground v.1.15,2013-11-07 07:41:00,
2013-11-07 02:46:00,57.2,56.4,29.98,SW,235,4.0,-999.0,97,0.00,,,0.00,Wunderground v.1.15,2013-11-07 07:46:00,
2013-11-07 02:51:00,57.5,56.4,29.98,SW,229,6.0,-999.0,96,0.00,,,0.00,Wunderground v.1.15,2013-11-07 07:51:00,
2013-11-07 02:56:00,57.5,56.4,29.98,SW,215,6.0,-999.0,96,0.00,,,0.00,Wunderground v.1.15,2013-11-07 07:56:00,
2013-11-07 03:01:00,57.6,56.5,29.98,WSW,242,5.0,-999.0,96,0.00,,,0.01,Wunderground v.1.15,2013-11-07 08:01:00,
2013-11-07 03:06:00,57.6,56.5,29.98,SSW,205,0.0,-999.0,96,0.00,,,0.01,Wunderground v.1.15,2013-11-07 08:06:00,
2013-11-07 03:11:00,57.6,56.8,29.96,SW,235,4.0,-999.0,97,0.00,,,0.01,Wunderground v.1.15,2013-11-07 08:11:00,
2013-11-07 03:16:00,57.6,56.8,29.96,SW,228,0.0,-999.0,97,0.00,,,0.01,Wunderground v.1.15,2013-11-07 08:16:00,
2013-11-07 03:21:00,57.8,57.2,29.96,SW,227,0.0,-999.0,98,0.00,,,0.01,Wunderground v.1.15,2013-11-07 08:21:00,
2013-11-07 03:26:00,58.0,57.4,29.96,South,186,8.0,-999.0,98,0.00,,,0.01,Wunderground v.1.15,2013-11-07 08:26:00,
2013-11-07 03:31:00,58.1,57.5,29.96,SW,215,4.0,-999.0,98,0.00,,,0.01,Wunderground v.1.15,2013-11-07 08:31:00,
2013-11-07 03:36:00,58.3,57.7,29.96,WSW,248,0.0,-999.0,98,0.00,,,0.01,Wunderground v.1.15,2013-11-07 08:36:00,
2013-11-07 03:42:00,58.4,57.8,29.95,SSW,209,10.0,-999.0,98,0.00,,,0.01,Wunderground v.1.15,2013-11-07 08:42:00,
2013-11-07 03:47:00,58.4,57.8,29.95,SSW,203,5.0,-999.0,98,0.00,,,0.01,Wunderground v.1.15,2013-11-07 08:47:00,
2013-11-07 03:52:00,58.4,57.8,29.95,SW,235,0.0,-999.0,98,0.00,,,0.01,Wunderground v.1.15,2013-11-07 08:52:00,
2013-11-07 03:57:00,58.6,58.0,29.94,WNW,284,1.0,-999.0,98,0.00,,,0.01,Wunderground v.1.15,2013-11-07 08:57:00,
2013-11-07 04:02:00,58.6,58.0,29.94,SW,231,7.0,-999.0,98,0.00,,,0.01,Wunderground v.1.15,2013-11-07 09:02:00,
2013-11-07 04:07:00,58.6,58.0,29.94,SW,217,7.0,-999.0,98,0.00,,,0.01,Wunderground v.1.15,2013-11-07 09:07:00,
2013-11-07 04:12:00,58.6,58.0,29.94,SW,225,5.0,-999.0,98,0.00,,,0.01,Wunderground v.1.15,2013-11-07 09:12:00,
2013-11-07 04:17:00,58.6,58.0,29.94,SW,223,7.0,-999.0,98,0.00,,,0.01,Wunderground v.1.15,2013-11-07 09:17:00,
2013-11-07 04:22:00,58.7,58.4,29.94,SSW,192,10.0,-999.0,99,0.00,,,0.01,Wunderground v.1.15,2013-11-07 09:22:00,
2013-11-07 04:27:00,58.7,58.4,29.93,SW,229,12.0,-999.0,99,0.00,,,0.01,Wunderground v.1.15,2013-11-07 09:27:00,
2013-11-07 04:32:00,58.7,58.4,29.93,SW,232,7.0,-999.0,99,0.00,,,0.01,Wunderground v.1.15,2013-11-07 09:32:00,
2013-11-07 04:37:00,58.7,58.4,29.92,SW,234,3.0,-999.0,99,0.00,,,0.01,Wunderground v.1.15,2013-11-07 09:37:00,
2013-11-07 04:42:00,58.7,58.4,29.92,SSW,198,0.0,-999.0,99,0.00,,,0.01,Wunderground v.1.15,2013-11-07 09:42:00,
2013-11-07 04:47:00,58.7,58.4,29.92,SW,224,8.0,-999.0,99,0.00,,,0.01,Wunderground v.1.15,2013-11-07 09:47:00,
2013-11-07 04:52:00,58.9,58.6,29.91,SSW,213,3.0,-999.0,99,0.00,,,0.01,Wunderground v.1.15,2013-11-07 09:52:00,
2013-11-07 04:57:00,58.9,58.6,29.91,WSW,242,3.0,-999.0,99,0.00,,,0.01,Wunderground v.1.15,2013-11-07 09:57:00,
2013-11-07 05:02:00,59.0,58.7,29.91,SSW,202,5.0,-999.0,99,0.00,,,0.01,Wunderground v.1.15,2013-11-07 10:02:00,
2013-11-07 05:07:00,59.0,58.7,29.90,WSW,246,7.0,-999.0,99,0.00,,,0.01,Wunderground v.1.15,2013-11-07 10:07:00,
2013-11-07 05:12:00,59.2,58.9,29.90,SSW,200,0.0,-999.0,99,0.00,,,0.01,Wunderground v.1.15,2013-11-07 10:12:00,
2013-11-07 05:17:00,59.3,59.0,29.90,SW,234,6.0,-999.0,99,0.00,,,0.01,Wunderground v.1.15,2013-11-07 10:17:00,
2013-11-07 05:22:00,59.3,59.0,29.89,SW,227,3.0,-999.0,99,0.00,,,0.01,Wunderground v.1.15,2013-11-07 10:22:00,
2013-11-07 05:27:00,59.3,59.0,29.89,SW,219,0.0,-999.0,99,0.00,,,0.01,Wunderground v.1.15,2013-11-07 10:27:00,
2013-11-07 05:32:00,59.3,59.0,29.89,WSW,242,4.0,-999.0,99,0.00,,,0.01,Wunderground v.1.15,2013-11-07 10:32:00,
2013-11-07 05:37:00,59.5,59.5,29.88,WSW,240,5.0,-999.0,100,0.00,,,0.01,Wunderground v.1.15,2013-11-07 10:37:00,
2013-11-07 05:42:00,59.5,59.5,29.88,SW,236,0.0,-999.0,100,0.00,,,0.01,Wunderground v.1.15,2013-11-07 10:42:00,
2013-11-07 05:47:00,59.5,59.5,29.88,SW,227,7.0,-999.0,100,0.00,,,0.01,Wunderground v.1.15,2013-11-07 10:47:00,
2013-11-07 05:52:00,59.6,59.6,29.87,SW,221,10.0,-999.0,100,0.00,,,0.01,Wunderground v.1.15,2013-11-07 10:52:00,
2013-11-07 05:57:00,59.6,59.6,29.87,SSW,211,4.0,-999.0,100,0.00,,,0.01,Wunderground v.1.15,2013-11-07 10:57:00,
2013-11-07 06:02:00,59.6,59.6,29.87,SSW,196,0.0,-999.0,100,0.00,,,0.01,Wunderground v.1.15,2013-11-07 11:02:00,
2013-11-07 06:07:00,59.8,59.8,29.87,SW,221,8.0,-999.0,100,0.00,,,0.01,Wunderground v.1.15,2013-11-07 11:07:00,
2013-11-07 06:12:00,59.8,59.8,29.87,SW,225,8.0,-999.0,100,0.00,,,0.01,Wunderground v.1.15,2013-11-07 11:12:00,
2013-11-07 06:17:00,59.8,59.8,29.87,WSW,246,11.0,-999.0,100,0.00,,,0.01,Wunderground v.1.15,2013-11-07 11:17:00,
2013-11-07 06:22:00,59.9,59.9,29.86,SW,216,13.0,-999.0,100,0.00,,,0.01,Wunderground v.1.15,2013-11-07 11:22:00,
2013-11-07 06:27:00,59.9,59.9,29.86,WSW,240,5.0,-999.0,100,0.00,,,0.01,Wunderground v.1.15,2013-11-07 11:27:00,
2013-11-07 06:32:00,59.9,59.9,29.86,WSW,239,12.0,-999.0,100,0.00,,,0.01,Wunderground v.1.15,2013-11-07 11:32:00,
2013-11-07 06:34:00,59.9,59.9,29.86,WSW,238,4.0,-999.0,100,0.00,,,0.01,Wunderground v.1.15,2013-11-07 11:34:00,
2013-11-07 06:39:00,59.8,59.8,29.85,SW,224,9.0,-999.0,100,0.00,,,0.01,Wunderground v.1.15,2013-11-07 11:39:00,
2013-11-07 06:44:00,59.8,59.5,29.85,SW,233,11.0,-999.0,99,0.00,,,0.01,Wunderground v.1.15,2013-11-07 11:44:00,
2013-11-07 06:49:00,59.9,59.6,29.85,SW,230,9.0,-999.0,99,0.00,,,0.01,Wunderground v.1.15,2013-11-07 11:49:00,
2013-11-07 06:54:00,59.9,59.6,29.85,WSW,244,7.0,-999.0,99,0.00,,,0.01,Wunderground v.1.15,2013-11-07 11:54:00,
2013-11-07 06:59:00,59.9,59.6,29.85,SSW,199,5.0,-999.0,99,0.00,,,0.01,Wunderground v.1.15,2013-11-07 11:59:00,
2013-11-07 07:04:00,59.9,59.6,29.85,SSW,193,5.0,-999.0,99,0.00,,,0.01,Wunderground v.1.15,2013-11-07 12:04:00,
2013-11-07 07:09:00,59.9,59.6,29.85,WSW,250,3.0,-999.0,99,0.00,,,0.01,Wunderground v.1.15,2013-11-07 12:09:00,
2013-11-07 07:14:00,59.9,59.6,29.85,WSW,257,6.0,-999.0,99,0.00,,,0.01,Wunderground v.1.15,2013-11-07 12:14:00,
2013-11-07 07:19:00,59.9,59.6,29.85,SSW,213,7.0,-999.0,99,0.00,,,0.01,Wunderground v.1.15,2013-11-07 12:19:00,
2013-11-07 07:24:00,60.1,59.8,29.85,SW,232,7.0,-999.0,99,0.00,,,0.01,Wunderground v.1.15,2013-11-07 12:24:00,
2013-11-07 07:29:00,60.1,59.8,29.85,WSW,241,8.0,-999.0,99,0.00,,,0.01,Wunderground v.1.15,2013-11-07 12:29:00,
2013-11-07 07:34:00,60.1,59.8,29.85,SW,231,12.0,-999.0,99,0.00,,,0.01,Wunderground v.1.15,2013-11-07 12:34:00,
2013-11-07 07:39:00,60.2,59.9,29.84,SW,221,5.0,-999.0,99,0.00,,,0.01,Wunderground v.1.15,2013-11-07 12:39:00,
2013-11-07 07:44:00,60.2,59.6,29.84,SW,225,7.0,-999.0,98,0.00,,,0.01,Wunderground v.1.15,2013-11-07 12:44:00,
2013-11-07 07:49:00,60.4,59.8,29.84,WSW,251,11.0,-999.0,98,0.00,,,0.01,Wunderground v.1.15,2013-11-07 12:49:00,
2013-11-07 07:54:00,60.4,59.8,29.84,SW,222,10.0,-999.0,98,0.00,,,0.01,Wunderground v.1.15,2013-11-07 12:54:00,
2013-11-07 07:59:00,60.4,59.5,29.84,South,175,7.0,-999.0,97,0.00,,,0.01,Wunderground v.1.15,2013-11-07 12:59:00,
2013-11-07 08:04:00,60.4,59.5,29.84,WSW,253,7.0,-999.0,97,0.00,,,0.01,Wunderground v.1.15,2013-11-07 13:04:00,
2013-11-07 08:09:00,60.4,59.5,29.84,WSW,247,14.0,-999.0,97,0.00,,,0.01,Wunderground v.1.15,2013-11-07 13:09:00,
2013-11-07 08:14:00,60.5,59.4,29.84,WSW,244,6.0,-999.0,96,0.00,,,0.01,Wunderground v.1.15,2013-11-07 13:14:00,
2013-11-07 08:19:00,60.5,59.4,29.84,SSW,204,0.0,-999.0,96,0.00,,,0.01,Wunderground v.1.15,2013-11-07 13:19:00,
2013-11-07 08:24:00,60.7,59.6,29.83,SW,228,6.0,-999.0,96,0.00,,,0.01,Wunderground v.1.15,2013-11-07 13:24:00,
2013-11-07 08:29:00,60.7,59.3,29.83,SW,236,13.0,-999.0,95,0.00,,,0.01,Wunderground v.1.15,2013-11-07 13:29:00,
2013-11-07 08:34:00,60.7,59.0,29.83,SSW,200,7.0,-999.0,94,0.00,,,0.01,Wunderground v.1.15,2013-11-07 13:34:00,
2013-11-07 08:39:00,60.9,59.2,29.83,SSW,207,12.0,-999.0,94,0.00,,,0.01,Wunderground v.1.15,2013-11-07 13:39:00,
2013-11-07 08:44:00,61.0,59.0,29.83,SW,235,11.0,-999.0,93,0.00,,,0.01,Wunderground v.1.15,2013-11-07 13:44:00,
2013-11-07 08:49:00,61.0,59.0,29.83,SW,229,7.0,-999.0,93,0.00,,,0.01,Wunderground v.1.15,2013-11-07 13:49:00,
2013-11-07 08:54:00,61.2,58.9,29.82,SW,219,5.0,-999.0,92,0.00,,,0.01,Wunderground v.1.15,2013-11-07 13:54:00,
2013-11-07 08:59:00,61.5,58.8,29.82,SW,223,6.0,-999.0,91,0.00,,,0.01,Wunderground v.1.15,2013-11-07 13:59:00,
2013-11-07 09:04:00,61.6,58.6,29.82,WSW,252,18.0,-999.0,90,0.00,,,0.01,Wunderground v.1.15,2013-11-07 14:04:00,
2013-11-07 09:09:00,61.8,58.5,29.82,SSW,208,4.0,-999.0,89,0.00,,,0.01,Wunderground v.1.15,2013-11-07 14:09:00,
2013-11-07 09:14:00,62.0,58.7,29.82,SW,228,9.0,-999.0,89,0.00,,,0.01,Wunderground v.1.15,2013-11-07 14:14:00,
2013-11-07 09:19:00,62.1,58.5,29.82,WSW,246,9.0,-999.0,88,0.00,,,0.01,Wunderground v.1.15,2013-11-07 14:19:00,
2013-11-07 09:24:00,62.3,58.4,29.82,SW,220,13.0,-999.0,87,0.00,,,0.01,Wunderground v.1.15,2013-11-07 14:24:00,
2013-11-07 09:29:00,62.4,58.2,29.82,WSW,240,7.0,-999.0,86,0.00,,,0.01,Wunderground v.1.15,2013-11-07 14:29:00,
2013-11-07 09:35:00,62.4,58.2,29.82,SW,232,9.0,-999.0,86,0.00,,,0.01,Wunderground v.1.15,2013-11-07 14:35:00,
2013-11-07 09:40:00,62.6,58.4,29.80,WSW,242,9.0,-999.0,86,0.00,,,0.01,Wunderground v.1.15,2013-11-07 14:40:00,
2013-11-07 09:45:00,62.7,58.1,29.80,WSW,257,9.0,-999.0,85,0.00,,,0.01,Wunderground v.1.15,2013-11-07 14:45:00,
2013-11-07 09:50:00,62.7,57.8,29.80,WSW,242,16.0,-999.0,84,0.00,,,0.01,Wunderground v.1.15,2013-11-07 14:50:00,
2013-11-07 09:55:00,62.7,57.8,29.80,West,259,12.0,-999.0,84,0.00,,,0.01,Wunderground v.1.15,2013-11-07 14:55:00,
2013-11-07 10:00:00,62.7,58.1,29.80,SW,233,11.0,-999.0,85,0.00,,,0.01,Wunderground v.1.15,2013-11-07 15:00:00,
2013-11-07 10:05:00,62.7,57.8,29.80,West,269,7.0,-999.0,84,0.00,,,0.01,Wunderground v.1.15,2013-11-07 15:05:00,
2013-11-07 10:10:00,62.7,57.8,29.80,SW,230,7.0,-999.0,84,0.00,,,0.01,Wunderground v.1.15,2013-11-07 15:10:00,
2013-11-07 10:15:00,62.9,57.7,29.80,WSW,249,8.0,-999.0,83,0.00,,,0.01,Wunderground v.1.15,2013-11-07 15:15:00,
2013-11-07 10:20:00,62.9,57.7,29.80,SW,231,7.0,-999.0,83,0.00,,,0.01,Wunderground v.1.15,2013-11-07 15:20:00,
2013-11-07 10:25:00,62.9,57.7,29.78,WSW,247,5.0,-999.0,83,0.00,,,0.01,Wunderground v.1.15,2013-11-07 15:25:00,
2013-11-07 10:30:00,63.1,57.9,29.78,WSW,240,6.0,-999.0,83,0.00,,,0.01,Wunderground v.1.15,2013-11-07 15:30:00,
2013-11-07 10:35:00,62.9,57.3,29.78,WSW,242,16.0,-999.0,82,0.00,,,0.01,Wunderground v.1.15,2013-11-07 15:35:00,
2013-11-07 10:40:00,62.9,57.3,29.77,WSW,244,14.0,-999.0,82,0.00,,,0.01,Wunderground v.1.15,2013-11-07 15:40:00,
2013-11-07 10:45:00,62.9,57.3,29.77,WSW,243,6.0,-999.0,82,0.00,,,0.01,Wunderground v.1.15,2013-11-07 15:45:00,
2013-11-07 10:50:00,62.7,57.1,29.77,SW,214,9.0,-999.0,82,0.00,,,0.01,Wunderground v.1.15,2013-11-07 15:50:00,
2013-11-07 10:55:00,62.6,57.4,29.76,SSW,193,1.0,-999.0,83,0.00,,,0.01,Wunderground v.1.15,2013-11-07 15:55:00,
2013-11-07 11:00:00,62.4,57.5,29.76,WSW,237,5.0,-999.0,84,0.00,,,0.01,Wunderground v.1.15,2013-11-07 16:00:00,
2013-11-07 11:05:00,62.3,57.7,29.76,SW,223,9.0,-999.0,85,0.00,,,0.01,Wunderground v.1.15,2013-11-07 16:05:00,
2013-11-07 11:10:00,62.0,57.8,29.75,WSW,238,6.0,-999.0,86,0.00,,,0.01,Wunderground v.1.15,2013-11-07 16:10:00,
2013-11-07 11:15:00,61.8,57.6,29.75,WSW,257,9.0,-999.0,86,0.00,,,0.01,Wunderground v.1.15,2013-11-07 16:15:00,
2013-11-07 11:20:00,61.5,57.6,29.75,West,279,5.0,-999.0,87,0.00,,,0.02,Wunderground v.1.15,2013-11-07 16:20:00,
2013-11-07 11:25:00,61.2,57.6,29.75,WSW,242,10.0,-999.0,88,0.07,,,0.03,Wunderground v.1.15,2013-11-07 16:25:00,
2013-11-07 11:30:00,61.0,57.7,29.75,WSW,242,5.0,-999.0,89,0.07,,,0.03,Wunderground v.1.15,2013-11-07 16:30:00,
2013-11-07 11:35:00,60.7,57.7,29.75,SW,235,5.0,-999.0,90,0.08,,,0.04,Wunderground v.1.15,2013-11-07 16:35:00,
2013-11-07 11:40:00,60.4,57.8,29.74,WSW,239,7.0,-999.0,91,0.07,,,0.04,Wunderground v.1.15,2013-11-07 16:40:00,
2013-11-07 11:45:00,60.2,57.9,29.74,SW,226,5.0,-999.0,92,0.04,,,0.04,Wunderground v.1.15,2013-11-07 16:45:00,
2013-11-07 11:50:00,60.2,57.9,29.74,SW,229,10.0,-999.0,92,0.04,,,0.05,Wunderground v.1.15,2013-11-07 16:50:00,
2013-11-07 11:55:00,60.1,58.1,29.74,SW,228,6.0,-999.0,93,0.04,,,0.05,Wunderground v.1.15,2013-11-07 16:55:00,
2013-11-07 12:00:00,59.9,58.2,29.74,WSW,253,2.0,-999.0,94,0.06,,,0.06,Wunderground v.1.15,2013-11-07 17:00:00,
2013-11-07 12:05:00,59.8,58.4,29.74,SW,217,0.0,-999.0,95,0.06,,,0.06,Wunderground v.1.15,2013-11-07 17:05:00,
2013-11-07 12:10:00,59.6,58.2,29.72,SW,235,5.0,-999.0,95,0.08,,,0.07,Wunderground v.1.15,2013-11-07 17:10:00,
2013-11-07 12:15:00,59.6,58.5,29.72,SW,219,5.0,-999.0,96,0.08,,,0.08,Wunderground v.1.15,2013-11-07 17:15:00,
2013-11-07 12:20:00,59.6,58.5,29.72,SW,234,6.0,-999.0,96,0.08,,,0.08,Wunderground v.1.15,2013-11-07 17:20:00,
2013-11-07 12:25:00,59.5,58.4,29.72,WSW,244,4.0,-999.0,96,0.07,,,0.09,Wunderground v.1.15,2013-11-07 17:25:00,
2013-11-07 12:30:00,59.3,58.2,29.72,SW,232,0.0,-999.0,96,0.07,,,0.10,Wunderground v.1.15,2013-11-07 17:30:00,
2013-11-07 12:35:00,59.3,58.4,29.72,SW,225,0.0,-999.0,97,0.15,,,0.11,Wunderground v.1.15,2013-11-07 17:35:00,
2013-11-07 12:40:00,59.3,58.4,29.71,SW,225,3.0,-999.0,97,0.09,,,0.11,Wunderground v.1.15,2013-11-07 17:40:00,
2013-11-07 12:45:00,59.2,58.3,29.71,SW,228,0.0,-999.0,97,0.05,,,0.11,Wunderground v.1.15,2013-11-07 17:45:00,
2013-11-07 12:50:00,59.2,58.3,29.71,SW,228,0.0,-999.0,97,0.04,,,0.11,Wunderground v.1.15,2013-11-07 17:50:00,
2013-11-07 12:55:00,59.0,58.2,29.71,SW,225,0.0,-999.0,97,0.00,,,0.12,Wunderground v.1.15,2013-11-07 17:55:00,
2013-11-07 12:58:00,59.0,58.2,29.71,SW,225,0.0,-999.0,97,0.12,,,0.13,Wunderground v.1.15,2013-11-07 17:58:00,
2013-11-07 13:03:00,58.9,58.3,29.71,West,274,5.0,-999.0,98,0.10,,,0.13,Wunderground v.1.15,2013-11-07 18:03:00,
2013-11-07 13:08:00,58.7,58.1,29.70,WSW,240,3.0,-999.0,98,0.07,,,0.14,Wunderground v.1.15,2013-11-07 18:08:00,
2013-11-07 13:13:00,58.7,57.9,29.70,WSW,240,0.0,-999.0,97,0.11,,,0.15,Wunderground v.1.15,2013-11-07 18:13:00,
2013-11-07 13:18:00,58.7,57.9,29.70,WSW,240,0.0,-999.0,97,0.09,,,0.15,Wunderground v.1.15,2013-11-07 18:18:00,
2013-11-07 13:23:00,58.6,57.8,29.69,WSW,240,0.0,-999.0,97,0.05,,,0.15,Wunderground v.1.15,2013-11-07 18:23:00,
2013-11-07 13:28:00,58.6,57.8,29.69,WSW,240,2.0,-999.0,97,0.04,,,0.15,Wunderground v.1.15,2013-11-07 18:28:00,
2013-11-07 13:33:00,58.6,57.8,29.69,WSW,242,0.0,-999.0,97,0.00,,,0.15,Wunderground v.1.15,2013-11-07 18:33:00,
2013-11-07 13:38:00,58.4,57.6,29.69,WSW,242,0.0,-999.0,97,0.00,,,0.15,Wunderground v.1.15,2013-11-07 18:38:00,
2013-11-07 13:43:00,58.4,57.6,29.69,WSW,242,0.0,-999.0,97,0.00,,,0.15,Wunderground v.1.15,2013-11-07 18:43:00,
2013-11-07 13:48:00,58.6,57.8,29.69,WSW,242,4.0,-999.0,97,0.00,,,0.15,Wunderground v.1.15,2013-11-07 18:48:00,
2013-11-07 13:53:00,58.4,57.6,29.69,SW,234,4.0,-999.0,97,0.00,,,0.15,Wunderground v.1.15,2013-11-07 18:53:00,
2013-11-07 13:58:00,58.4,57.6,29.69,WSW,243,0.0,-999.0,97,0.00,,,0.15,Wunderground v.1.15,2013-11-07 18:58:00,
2013-11-07 14:03:00,58.3,57.5,29.69,WSW,244,3.0,-999.0,97,0.00,,,0.15,Wunderground v.1.15,2013-11-07 19:03:00,
2013-11-07 14:08:00,58.3,57.5,29.69,WSW,248,0.0,-999.0,97,0.00,,,0.15,Wunderground v.1.15,2013-11-07 19:08:00,
2013-11-07 14:13:00,58.3,57.5,29.69,WSW,242,0.0,-999.0,97,0.00,,,0.15,Wunderground v.1.15,2013-11-07 19:13:00,
2013-11-07 14:18:00,58.1,57.3,29.69,WSW,244,3.0,-999.0,97,0.00,,,0.15,Wunderground v.1.15,2013-11-07 19:18:00,
2013-11-07 14:23:00,58.1,57.3,29.69,WSW,245,0.0,-999.0,97,0.00,,,0.16,Wunderground v.1.15,2013-11-07 19:23:00,
2013-11-07 14:28:00,58.1,57.3,29.69,WSW,245,0.0,-999.0,97,0.00,,,0.16,Wunderground v.1.15,2013-11-07 19:28:00,
2013-11-07 14:33:00,58.1,57.3,29.69,WSW,245,0.0,-999.0,97,0.00,,,0.16,Wunderground v.1.15,2013-11-07 19:33:00,
2013-11-07 14:38:00,58.0,57.2,29.69,WSW,245,0.0,-999.0,97,0.00,,,0.16,Wunderground v.1.15,2013-11-07 19:38:00,
2013-11-07 14:43:00,58.0,57.2,29.69,WSW,245,0.0,-999.0,97,0.00,,,0.16,Wunderground v.1.15,2013-11-07 19:43:00,
2013-11-07 14:48:00,58.0,57.2,29.69,WSW,245,4.0,-999.0,97,0.00,,,0.16,Wunderground v.1.15,2013-11-07 19:48:00,
2013-11-07 14:53:00,57.8,57.0,29.71,WSW,247,0.0,-999.0,97,0.00,,,0.17,Wunderground v.1.15,2013-11-07 19:53:00,
2013-11-07 14:58:00,57.8,57.0,29.71,SW,232,0.0,-999.0,97,0.00,,,0.17,Wunderground v.1.15,2013-11-07 19:58:00,
2013-11-07 15:03:00,57.5,56.7,29.71,NW,324,8.0,-999.0,97,0.42,,,0.21,Wunderground v.1.15,2013-11-07 20:03:00,
2013-11-07 15:08:00,54.8,53.1,29.74,NNE,28,11.0,-999.0,94,0.20,,,0.23,Wunderground v.1.15,2013-11-07 20:08:00,
2013-11-07 15:13:00,53.5,51.8,29.74,NW,321,3.0,-999.0,94,0.08,,,0.24,Wunderground v.1.15,2013-11-07 20:13:00,
2013-11-07 15:18:00,52.8,51.1,29.74,NNW,337,1.0,-999.0,94,0.08,,,0.24,Wunderground v.1.15,2013-11-07 20:18:00,
2013-11-07 15:23:00,52.5,51.1,29.72,NNW,341,0.0,-999.0,95,0.06,,,0.24,Wunderground v.1.15,2013-11-07 20:23:00,
2013-11-07 15:28:00,52.3,50.6,29.72,North,9,1.0,-999.0,94,0.04,,,0.24,Wunderground v.1.15,2013-11-07 20:28:00,
2013-11-07 15:33:00,52.2,50.5,29.72,NNW,342,0.0,-999.0,94,0.00,,,0.24,Wunderground v.1.15,2013-11-07 20:33:00,
2013-11-07 15:39:00,52.0,50.3,29.72,NNW,340,0.0,-999.0,94,0.00,,,0.24,Wunderground v.1.15,2013-11-07 20:39:00,
2013-11-07 15:44:00,51.7,50.0,29.72,NNW,346,0.0,-999.0,94,0.00,,,0.24,Wunderground v.1.15,2013-11-07 20:44:00,
2013-11-07 15:49:00,51.6,49.9,29.72,NW,312,6.0,-999.0,94,0.00,,,0.24,Wunderground v.1.15,2013-11-07 20:49:00,
2013-11-07 15:54:00,51.3,49.6,29.74,NW,314,0.0,-999.0,94,0.00,,,0.25,Wunderground v.1.15,2013-11-07 20:54:00,
2013-11-07 15:59:00,51.0,49.3,29.74,NW,316,1.0,-999.0,94,0.00,,,0.25,Wunderground v.1.15,2013-11-07 20:59:00,
2013-11-07 16:04:00,50.7,48.7,29.74,NW,304,0.0,-999.0,93,0.00,,,0.25,Wunderground v.1.15,2013-11-07 21:04:00,
2013-11-07 16:09:00,50.4,48.5,29.73,NW,307,0.0,-999.0,93,0.00,,,0.25,Wunderground v.1.15,2013-11-07 21:09:00,
2013-11-07 16:14:00,50.4,48.5,29.73,NW,307,0.0,-999.0,93,0.00,,,0.25,Wunderground v.1.15,2013-11-07 21:14:00,
2013-11-07 16:19:00,50.2,48.3,29.73,NW,307,0.0,-999.0,93,0.00,,,0.25,Wunderground v.1.15,2013-11-07 21:19:00,
2013-11-07 16:24:00,49.9,48.0,29.73,NW,323,0.0,-999.0,93,0.00,,,0.25,Wunderground v.1.15,2013-11-07 21:24:00,
2013-11-07 16:29:00,49.8,47.9,29.73,NW,323,0.0,-999.0,93,0.00,,,0.26,Wunderground v.1.15,2013-11-07 21:29:00,
2013-11-07 16:34:00,49.5,47.6,29.73,NW,307,0.0,-999.0,93,0.00,,,0.26,Wunderground v.1.15,2013-11-07 21:34:00,
2013-11-07 16:39:00,49.4,47.5,29.74,NW,317,0.0,-999.0,93,0.00,,,0.26,Wunderground v.1.15,2013-11-07 21:39:00,
2013-11-07 16:44:00,49.1,46.9,29.74,NNW,330,0.0,-999.0,92,0.00,,,0.26,Wunderground v.1.15,2013-11-07 21:44:00,
2013-11-07 16:49:00,48.8,46.6,29.74,NNW,336,4.0,-999.0,92,0.00,,,0.26,Wunderground v.1.15,2013-11-07 21:49:00,
2013-11-07 16:54:00,48.5,46.3,29.74,NW,316,0.0,-999.0,92,0.00,,,0.26,Wunderground v.1.15,2013-11-07 21:54:00,
2013-11-07 16:59:00,48.2,46.0,29.74,North,10,4.0,-999.0,92,0.00,,,0.26,Wunderground v.1.15,2013-11-07 21:59:00,
2013-11-07 17:04:00,47.9,45.7,29.74,NW,313,1.0,-999.0,92,0.00,,,0.27,Wunderground v.1.15,2013-11-07 22:04:00,
2013-11-07 17:09:00,47.7,45.5,29.74,NNW,338,0.0,-999.0,92,0.00,,,0.27,Wunderground v.1.15,2013-11-07 22:09:00,
2013-11-07 17:14:00,47.6,45.4,29.74,WNW,286,0.0,-999.0,92,0.00,,,0.27,Wunderground v.1.15,2013-11-07 22:14:00,
2013-11-07 17:19:00,47.1,44.6,29.74,WNW,289,2.0,-999.0,91,0.00,,,0.27,Wunderground v.1.15,2013-11-07 22:19:00,
2013-11-07 17:24:00,46.8,44.0,29.76,West,269,0.0,-999.0,90,0.00,,,0.27,Wunderground v.1.15,2013-11-07 22:24:00,
2013-11-07 17:29:00,46.8,44.0,29.76,WNW,292,0.0,-999.0,90,0.00,,,0.27,Wunderground v.1.15,2013-11-07 22:29:00,
2013-11-07 17:34:00,46.5,43.4,29.76,WNW,290,0.0,-999.0,89,0.00,,,0.27,Wunderground v.1.15,2013-11-07 22:34:00,
2013-11-07 17:39:00,46.4,43.3,29.76,WNW,290,0.0,-999.0,89,0.00,,,0.27,Wunderground v.1.15,2013-11-07 22:39:00,
2013-11-07 17:44:00,46.2,43.1,29.76,NW,311,0.0,-999.0,89,0.00,,,0.27,Wunderground v.1.15,2013-11-07 22:44:00,
2013-11-07 17:49:00,46.1,43.0,29.76,NW,311,3.0,-999.0,89,0.00,,,0.27,Wunderground v.1.15,2013-11-07 22:49:00,
2013-11-07 17:54:00,46.1,42.7,29.78,WNW,298,0.0,-999.0,88,0.00,,,0.27,Wunderground v.1.15,2013-11-07 22:54:00,
2013-11-07 17:59:00,46.0,42.6,29.78,WNW,298,4.0,-999.0,88,0.00,,,0.27,Wunderground v.1.15,2013-11-07 22:59:00,
2013-11-07 18:04:00,45.8,42.4,29.78,WNW,300,0.0,-999.0,88,0.00,,,0.27,Wunderground v.1.15,2013-11-07 23:04:00,
2013-11-07 18:09:00,45.8,42.4,29.79,West,269,0.0,-999.0,88,0.00,,,0.27,Wunderground v.1.15,2013-11-07 23:09:00,
2013-11-07 18:14:00,45.7,42.3,29.79,West,274,3.0,-999.0,88,0.00,,,0.27,Wunderground v.1.15,2013-11-07 23:14:00,
2013-11-07 18:19:00,45.4,42.1,29.79,West,276,2.0,-999.0,88,0.00,,,0.27,Wunderground v.1.15,2013-11-07 23:19:00,
2013-11-07 18:25:00,45.2,41.9,29.79,WNW,283,0.0,-999.0,88,0.00,,,0.27,Wunderground v.1.15,2013-11-07 23:25:00,
2013-11-07 18:29:00,45.2,41.9,29.79,WNW,285,0.0,-999.0,88,0.00,,,0.27,Wunderground v.1.15,2013-11-07 23:29:00,
2013-11-07 18:35:00,45.1,41.8,29.79,NW,308,0.0,-999.0,88,0.00,,,0.27,Wunderground v.1.15,2013-11-07 23:35:00,
2013-11-07 18:40:00,44.8,41.2,29.80,West,264,0.0,-999.0,87,0.00,,,0.27,Wunderground v.1.15,2013-11-07 23:40:00,
2013-11-07 18:45:00,44.6,40.7,29.80,NW,308,8.0,-999.0,86,0.00,,,0.27,Wunderground v.1.15,2013-11-07 23:45:00,
2013-11-07 18:50:00,44.5,40.0,29.80,SSW,198,3.0,-999.0,84,0.00,,,0.27,Wunderground v.1.15,2013-11-07 23:50:00,
2013-11-07 18:55:00,44.3,39.5,29.80,NW,321,1.0,-999.0,83,0.00,,,0.27,Wunderground v.1.15,2013-11-07 23:55:00,
2013-11-07 19:00:00,44.1,39.0,29.80,WNW,294,0.0,-999.0,82,0.00,,,0.27,Wunderground v.1.15,2013-11-08 00:00:00,
2013-11-07 19:05:00,44.1,38.6,29.80,NW,325,0.0,-999.0,81,0.00,,,0.27,Wunderground v.1.15,2013-11-08 00:05:00,
2013-11-07 19:10:00,44.1,38.0,29.80,WNW,284,0.0,-999.0,79,0.00,,,0.27,Wunderground v.1.15,2013-11-08 00:10:00,
2013-11-07 19:15:00,43.9,37.5,29.80,WNW,292,2.0,-999.0,78,0.00,,,0.27,Wunderground v.1.15,2013-11-08 00:15:00,
2013-11-07 19:20:00,43.9,37.5,29.80,NW,314,1.0,-999.0,78,0.00,,,0.27,Wunderground v.1.15,2013-11-08 00:20:00,
2013-11-07 19:25:00,43.8,37.1,29.81,NW,308,0.0,-999.0,77,0.00,,,0.27,Wunderground v.1.15,2013-11-08 00:25:00,
2013-11-07 19:30:00,43.8,36.7,29.81,WNW,293,7.0,-999.0,76,0.00,,,0.27,Wunderground v.1.15,2013-11-08 00:30:00,
2013-11-07 19:35:00,43.8,36.7,29.81,WNW,302,3.0,-999.0,76,0.00,,,0.27,Wunderground v.1.15,2013-11-08 00:35:00,
2013-11-07 19:40:00,43.6,36.5,29.81,NNW,338,6.0,-999.0,76,0.00,,,0.27,Wunderground v.1.15,2013-11-08 00:40:00,
2013-11-07 19:45:00,43.6,36.5,29.81,WNW,291,0.0,-999.0,76,0.00,,,0.27,Wunderground v.1.15,2013-11-08 00:45:00,
2013-11-07 19:50:00,43.5,36.4,29.81,West,266,0.0,-999.0,76,0.00,,,0.27,Wunderground v.1.15,2013-11-08 00:50:00,
2013-11-07 19:55:00,43.3,36.2,29.81,NW,311,0.0,-999.0,76,0.00,,,0.27,Wunderground v.1.15,2013-11-08 00:55:00,
2013-11-07 20:00:00,43.3,36.2,29.81,NW,304,2.0,-999.0,76,0.00,,,0.27,Wunderground v.1.15,2013-11-08 01:00:00,
2013-11-07 20:05:00,43.1,36.4,29.81,NW,304,2.0,-999.0,77,0.00,,,0.27,Wunderground v.1.15,2013-11-08 01:05:00,
2013-11-07 20:10:00,42.9,36.5,29.82,NW,304,1.0,-999.0,78,0.00,,,0.27,Wunderground v.1.15,2013-11-08 01:10:00,
2013-11-07 20:15:00,42.8,36.1,29.82,WNW,296,2.0,-999.0,77,0.00,,,0.27,Wunderground v.1.15,2013-11-08 01:15:00,
2013-11-07 20:20:00,42.6,36.2,29.82,West,280,1.0,-999.0,78,0.00,,,0.27,Wunderground v.1.15,2013-11-08 01:20:00,
2013-11-07 20:25:00,42.6,35.9,29.82,WNW,290,3.0,-999.0,77,0.00,,,0.27,Wunderground v.1.15,2013-11-08 01:25:00,
2013-11-07 20:30:00,42.6,35.9,29.82,WNW,299,0.0,-999.0,77,0.00,,,0.27,Wunderground v.1.15,2013-11-08 01:30:00,
2013-11-07 20:35:00,42.5,35.8,29.82,NW,313,5.0,-999.0,77,0.00,,,0.27,Wunderground v.1.15,2013-11-08 01:35:00,
2013-11-07 20:40:00,42.5,35.8,29.82,NW,313,0.0,-999.0,77,0.00,,,0.27,Wunderground v.1.15,2013-11-08 01:40:00,
2013-11-07 20:45:00,42.3,35.6,29.82,NW,309,0.0,-999.0,77,0.00,,,0.27,Wunderground v.1.15,2013-11-08 01:45:00,
2013-11-07 20:51:00,42.2,35.8,29.82,NW,309,2.0,-999.0,78,0.00,,,0.27,Wunderground v.1.15,2013-11-08 01:51:00,
2013-11-07 20:56:00,42.1,35.7,29.83,WNW,286,3.0,-999.0,78,0.00,,,0.27,Wunderground v.1.15,2013-11-08 01:56:00,
2013-11-07 21:01:00,42.1,35.7,29.83,WNW,283,0.0,-999.0,78,0.00,,,0.27,Wunderground v.1.15,2013-11-08 02:01:00,
2013-11-07 21:06:00,42.1,35.4,29.83,WNW,294,0.0,-999.0,77,0.00,,,0.27,Wunderground v.1.15,2013-11-08 02:06:00,
2013-11-07 21:11:00,42.2,35.5,29.83,WNW,286,0.0,-999.0,77,0.00,,,0.27,Wunderground v.1.15,2013-11-08 02:11:00,
2013-11-07 21:16:00,42.3,35.6,29.83,NNW,332,0.0,-999.0,77,0.00,,,0.27,Wunderground v.1.15,2013-11-08 02:16:00,
2013-11-07 21:21:00,42.2,35.5,29.83,NW,304,0.0,-999.0,77,0.00,,,0.27,Wunderground v.1.15,2013-11-08 02:21:00,
2013-11-07 21:26:00,42.1,35.4,29.84,WNW,296,5.0,-999.0,77,0.00,,,0.27,Wunderground v.1.15,2013-11-08 02:26:00,
2013-11-07 21:31:00,42.5,35.1,29.84,NNW,336,0.0,-999.0,75,0.00,,,0.27,Wunderground v.1.15,2013-11-08 02:31:00,
2013-11-07 21:36:00,42.5,35.1,29.84,West,264,3.0,-999.0,75,0.00,,,0.27,Wunderground v.1.15,2013-11-08 02:36:00,
2013-11-07 21:41:00,42.5,35.1,29.85,WNW,299,7.0,-999.0,75,0.00,,,0.27,Wunderground v.1.15,2013-11-08 02:41:00,
2013-11-07 21:46:00,42.6,34.9,29.85,NW,315,5.0,-999.0,74,0.00,,,0.27,Wunderground v.1.15,2013-11-08 02:46:00,
2013-11-07 21:51:00,42.8,34.7,29.85,NNW,342,3.0,-999.0,73,0.00,,,0.27,Wunderground v.1.15,2013-11-08 02:51:00,
2013-11-07 21:56:00,42.8,34.7,29.85,West,269,3.0,-999.0,73,0.00,,,0.27,Wunderground v.1.15,2013-11-08 02:56:00,
2013-11-07 22:01:00,42.6,34.2,29.85,WNW,292,5.0,-999.0,72,0.00,,,0.27,Wunderground v.1.15,2013-11-08 03:01:00,
2013-11-07 22:06:00,42.6,34.2,29.85,West,281,4.0,-999.0,72,0.00,,,0.27,Wunderground v.1.15,2013-11-08 03:06:00,
2013-11-07 22:11:00,42.6,34.2,29.85,West,275,3.0,-999.0,72,0.00,,,0.27,Wunderground v.1.15,2013-11-08 03:11:00,
2013-11-07 22:16:00,42.5,34.1,29.85,West,275,1.0,-999.0,72,0.00,,,0.27,Wunderground v.1.15,2013-11-08 03:16:00,
2013-11-07 22:21:00,42.3,33.9,29.85,WNW,301,3.0,-999.0,72,0.00,,,0.27,Wunderground v.1.15,2013-11-08 03:21:00,
2013-11-07 22:26:00,42.2,33.8,29.85,WNW,298,3.0,-999.0,72,0.00,,,0.27,Wunderground v.1.15,2013-11-08 03:26:00,
2013-11-07 22:31:00,42.1,33.7,29.85,WNW,298,1.0,-999.0,72,0.00,,,0.27,Wunderground v.1.15,2013-11-08 03:31:00,
2013-11-07 22:36:00,42.1,33.7,29.85,WNW,285,2.0,-999.0,72,0.00,,,0.27,Wunderground v.1.15,2013-11-08 03:36:00,
2013-11-07 22:41:00,41.9,33.9,29.85,West,259,3.0,-999.0,73,0.00,,,0.27,Wunderground v.1.15,2013-11-08 03:41:00,
2013-11-07 22:46:00,41.8,33.8,29.85,West,275,3.0,-999.0,73,0.00,,,0.27,Wunderground v.1.15,2013-11-08 03:46:00,
2013-11-07 22:51:00,41.6,33.6,29.85,WNW,284,4.0,-999.0,73,0.00,,,0.27,Wunderground v.1.15,2013-11-08 03:51:00,
2013-11-07 22:56:00,41.6,33.6,29.85,West,277,2.0,-999.0,73,0.00,,,0.27,Wunderground v.1.15,2013-11-08 03:56:00,
2013-11-07 23:01:00,41.5,33.5,29.85,NW,306,2.0,-999.0,73,0.00,,,0.27,Wunderground v.1.15,2013-11-08 04:01:00,
2013-11-07 23:06:00,41.3,33.3,29.85,WNW,302,0.0,-999.0,73,0.00,,,0.27,Wunderground v.1.15,2013-11-08 04:06:00,
2013-11-07 23:11:00,41.3,33.3,29.85,WNW,302,1.0,-999.0,73,0.00,,,0.27,Wunderground v.1.15,2013-11-08 04:11:00,
2013-11-07 23:16:00,41.1,33.4,29.85,WNW,302,0.0,-999.0,74,0.00,,,0.27,Wunderground v.1.15,2013-11-08 04:16:00,
2013-11-07 23:21:00,40.9,33.6,29.85,WNW,302,2.0,-999.0,75,0.00,,,0.27,Wunderground v.1.15,2013-11-08 04:21:00,
2013-11-07 23:26:00,40.8,33.5,29.85,WNW,302,0.0,-999.0,75,0.00,,,0.27,Wunderground v.1.15,2013-11-08 04:26:00,
2013-11-07 23:31:00,40.3,33.3,29.85,WNW,302,0.0,-999.0,76,0.00,,,0.27,Wunderground v.1.15,2013-11-08 04:31:00,
2013-11-07 23:37:00,40.1,33.5,29.85,WNW,302,0.0,-999.0,77,0.00,,,0.27,Wunderground v.1.15,2013-11-08 04:37:00,
2013-11-07 23:42:00,39.6,33.3,29.85,WNW,302,0.0,-999.0,78,0.00,,,0.27,Wunderground v.1.15,2013-11-08 04:42:00,
2013-11-07 23:47:00,39.5,33.5,29.85,WNW,302,0.0,-999.0,79,0.00,,,0.27,Wunderground v.1.15,2013-11-08 04:47:00,
2013-11-07 23:52:00,39.3,33.3,29.85,WNW,302,0.0,-999.0,79,0.00,,,0.27,Wunderground v.1.15,2013-11-08 04:52:00,
2013-11-07 23:57:00,39.3,33.0,29.85,WNW,302,0.0,-999.0,78,0.00,,,0.27,Wunderground v.1.15,2013-11-08 04:57:00,